US Aviators Van Nuys Flight School Los Angeles Pilot school at Van Nuys Simulator Flight Training Profesional Pilot Instruction Learn to Fly

U.S. Aviators

Learn to fly here! (818) 779-2105

Weather at Van Nuys Airport

Observed:Sun Oct 4, 09:51 PDT
Age:4 min ago
Wind:Variable at 2 mph
Visibility:10 miles
Temperature:63°F (17°C)
Dewpoint:50°F (10°C)
Barometer:1004 hPa (29.65 in Hg)


KVNY 041651Z VRB04KT 10SM SCT028 BKN037 OVC060 17/10 A2965 RMK AO2 SLP034 T01720100